createdAt,value
2019-05-25T00:00:26.343Z,101310.47
2019-05-25T00:03:49.568Z,101319.80
2019-05-25T00:07:12.862Z,101316.85
2019-05-25T00:10:36.038Z,101313.63
2019-05-25T00:13:59.286Z,101314.64
2019-05-25T00:17:22.503Z,101316.23
2019-05-25T00:20:45.765Z,101315.79
2019-05-25T00:24:12.566Z,101317.59
2019-05-25T00:27:34.465Z,101319.98
2019-05-25T00:30:57.709Z,101313.70
2019-05-25T00:34:20.921Z,101313.44
2019-05-25T00:37:44.443Z,101319.03
2019-05-25T00:41:07.645Z,101320.50
2019-05-25T00:44:30.892Z,101325.72
2019-05-25T00:47:54.043Z,101328.53
2019-05-25T00:51:17.236Z,101321.48
2019-05-25T00:54:59.899Z,101321.56
2019-05-25T00:58:22.987Z,101323.59
2019-05-25T01:01:46.152Z,101311.02
2019-05-25T01:05:09.479Z,101311.70
2019-05-25T01:08:32.713Z,101311.44
2019-05-25T01:11:56.128Z,101310.20
2019-05-25T01:15:19.511Z,101313.82
2019-05-25T01:18:42.889Z,101312.27
2019-05-25T01:22:06.115Z,101311.07
2019-05-25T01:25:29.248Z,101313.63
2019-05-25T01:28:52.411Z,101312.68
2019-05-25T01:32:15.583Z,101316.06
2019-05-25T01:35:38.692Z,101312.05
2019-05-25T01:39:01.927Z,101313.75
2019-05-25T01:42:26.125Z,101317.23
2019-05-25T01:45:50.296Z,101322.53
2019-05-25T01:49:13.397Z,101320.94
2019-05-25T01:52:36.600Z,101328.48
2019-05-25T01:55:59.893Z,101327.32
2019-05-25T01:59:23.123Z,101319.91
2019-05-25T02:02:46.438Z,101329.40
2019-05-25T02:06:09.948Z,101330.97
2019-05-25T02:09:33.149Z,101330.22
2019-05-25T02:12:56.307Z,101335.20
2019-05-25T02:16:19.486Z,101337.73
2019-05-25T02:19:42.823Z,101347.32
2019-05-25T02:23:07.229Z,101341.16
2019-05-25T02:26:30.323Z,101342.28
2019-05-25T02:29:53.708Z,101343.75
2019-05-25T02:33:16.929Z,101340.84
2019-05-25T02:36:40.380Z,101345.87
2019-05-25T02:40:04.604Z,101342.37
2019-05-25T02:43:27.680Z,101343.17
2019-05-25T02:46:51.091Z,101346.73
2019-05-25T02:50:14.825Z,101342.97
2019-05-25T02:53:38.204Z,101348.09
2019-05-25T02:57:02.297Z,101347.02
2019-05-25T03:00:32.452Z,101347.33
2019-05-25T03:03:55.644Z,101357.77
2019-05-25T03:07:20.409Z,101352.37
2019-05-25T03:10:43.741Z,101362.31
2019-05-25T03:14:06.823Z,101362.11
2019-05-25T03:17:29.973Z,101365.60
2019-05-25T03:20:53.148Z,101360.20
2019-05-25T03:24:16.289Z,101369.45
2019-05-25T03:27:39.395Z,101370.89
2019-05-25T03:31:02.464Z,101370.13
2019-05-25T03:34:25.549Z,101374.18
2019-05-25T03:37:48.794Z,101367.25
2019-05-25T03:41:11.974Z,101376.80
2019-05-25T03:44:35.049Z,101380.34
2019-05-25T03:47:58.455Z,101389.93
2019-05-25T03:51:21.554Z,101382.09
2019-05-25T03:54:44.761Z,101385.56
2019-05-25T03:58:07.966Z,101385.39
2019-05-25T04:01:31.337Z,101389.13
2019-05-25T04:04:54.694Z,101389.05
2019-05-25T04:08:17.876Z,101397.06
2019-05-25T04:11:40.959Z,101402.08
2019-05-25T04:15:05.861Z,101404.30
2019-05-25T04:18:29.806Z,101409.41
2019-05-25T04:21:53.271Z,101407.68
2019-05-25T04:25:16.429Z,101410.53
2019-05-25T04:28:39.527Z,101407.28
2019-05-25T04:32:02.669Z,101410.49
2019-05-25T04:35:25.812Z,101414.16
2019-05-25T04:38:49.140Z,101418.19
2019-05-25T04:42:12.377Z,101420.44
2019-05-25T04:45:35.478Z,101414.23
2019-05-25T04:48:58.567Z,101414.13
2019-05-25T04:52:21.669Z,101420.53
2019-05-25T04:55:44.837Z,101423.81
2019-05-25T04:59:07.999Z,101424.44
2019-05-25T05:02:31.072Z,101429.23
2019-05-25T05:05:54.169Z,101431.25
2019-05-25T05:09:17.284Z,101434.31
2019-05-25T05:12:40.346Z,101434.77
2019-05-25T05:16:03.758Z,101431.78
2019-05-25T05:19:26.919Z,101437.80
2019-05-25T05:22:50.141Z,101430.28
2019-05-25T05:26:13.205Z,101426.70
2019-05-25T05:29:36.285Z,101431.06
2019-05-25T05:32:59.494Z,101423.75
2019-05-25T05:36:23.627Z,101429.78
2019-05-25T05:39:47.067Z,101429.40
2019-05-25T05:43:11.084Z,101429.13
2019-05-25T05:46:36.206Z,101432.42
2019-05-25T05:50:02.224Z,101434.97
2019-05-25T05:53:25.662Z,101437.03
2019-05-25T05:56:49.082Z,101436.51
2019-05-25T06:00:13.361Z,101446.76
2019-05-25T06:03:36.431Z,101446.72
2019-05-25T06:06:59.512Z,101450.00
2019-05-25T06:10:22.691Z,101443.30
2019-05-25T06:13:45.815Z,101445.91
2019-05-25T06:17:08.923Z,101454.72
2019-05-25T06:20:32.279Z,101452.34
2019-05-25T06:23:55.678Z,101451.57
2019-05-25T06:27:27.283Z,101461.48
2019-05-25T06:30:44.532Z,101465.35
2019-05-25T06:34:11.415Z,101466.44
2019-05-25T06:37:34.912Z,101468.77
2019-05-25T06:40:57.999Z,101468.16
2019-05-25T06:44:21.065Z,101473.59
2019-05-25T06:47:44.204Z,101477.19
2019-05-25T06:51:07.302Z,101473.73
2019-05-25T06:54:30.453Z,101471.56
2019-05-25T06:57:53.598Z,101478.81
2019-05-25T07:01:16.737Z,101482.67
2019-05-25T07:04:39.981Z,101487.53
2019-05-25T07:08:03.093Z,101487.69
2019-05-25T07:11:26.205Z,101481.92
2019-05-25T07:14:52.437Z,101492.08
2019-05-25T07:18:15.744Z,101486.11
2019-05-25T07:21:41.681Z,101482.80
2019-05-25T07:25:05.828Z,101485.23
2019-05-25T07:28:29.334Z,101490.20
2019-05-25T07:31:53.600Z,101484.17
2019-05-25T07:35:16.904Z,101484.80
2019-05-25T07:38:40.118Z,101490.27
2019-05-25T07:42:03.351Z,101488.45
2019-05-25T07:45:26.610Z,101487.46
2019-05-25T07:48:52.735Z,101495.53
2019-05-25T07:52:15.891Z,101496.75
2019-05-25T07:55:38.946Z,101485.72
2019-05-25T07:59:02.158Z,101491.91
2019-05-25T08:02:26.604Z,101494.30
2019-05-25T08:05:49.684Z,101489.88
2019-05-25T08:09:12.848Z,101488.17
2019-05-25T08:12:36.107Z,101493.97
2019-05-25T08:15:59.237Z,101497.27
2019-05-25T08:19:22.438Z,101494.94
2019-05-25T08:22:45.647Z,101492.74
2019-05-25T08:26:08.891Z,101491.84
2019-05-25T08:29:32.043Z,101495.04
2019-05-25T08:32:55.128Z,101496.58
2019-05-25T08:36:18.335Z,101495.16
2019-05-25T08:39:41.715Z,101492.66
2019-05-25T08:43:04.847Z,101497.77
2019-05-25T08:46:28.335Z,101498.89
2019-05-25T08:49:51.613Z,101501.89
2019-05-25T08:53:14.777Z,101503.12
2019-05-25T08:56:38.996Z,101495.71
2019-05-25T09:00:02.162Z,101504.64
2019-05-25T09:03:26.502Z,101501.82
2019-05-25T09:06:49.672Z,101497.95
2019-05-25T09:10:13.459Z,101497.74
2019-05-25T09:13:36.590Z,101498.81
2019-05-25T09:17:00.671Z,101492.80
2019-05-25T09:20:23.847Z,101497.70
2019-05-25T09:23:48.836Z,101500.89
2019-05-25T09:27:12.014Z,101502.61
2019-05-25T09:30:35.166Z,101494.84
2019-05-25T09:33:58.384Z,101497.09
2019-05-25T09:37:21.536Z,101496.30
2019-05-25T09:40:44.681Z,101500.05
2019-05-25T09:44:07.999Z,101506.95
2019-05-25T09:47:32.125Z,101491.77
2019-05-25T09:50:55.271Z,101491.70
2019-05-25T09:54:18.613Z,101495.47
2019-05-25T09:57:42.094Z,101498.73
2019-05-25T10:01:05.387Z,101504.41
2019-05-25T10:04:28.511Z,101494.75
2019-05-25T10:07:51.633Z,101499.08
2019-05-25T10:11:14.728Z,101496.02
2019-05-25T10:14:38.139Z,101497.78
2019-05-25T10:18:01.417Z,101501.25
2019-05-25T10:21:24.677Z,101496.52
2019-05-25T10:24:47.874Z,101503.92
2019-05-25T10:28:11.009Z,101501.20
2019-05-25T10:31:34.133Z,101508.59
2019-05-25T10:34:57.315Z,101497.52
2019-05-25T10:38:20.765Z,101506.66
2019-05-25T10:41:44.328Z,101501.87
2019-05-25T10:45:08.365Z,101498.30
2019-05-25T10:48:31.436Z,101496.20
2019-05-25T10:51:54.539Z,101500.40
2019-05-25T10:55:17.781Z,101500.41
2019-05-25T10:58:41.100Z,101495.04
2019-05-25T11:02:04.332Z,101496.03
2019-05-25T11:05:27.409Z,101495.59
2019-05-25T11:08:50.883Z,101492.48
2019-05-25T11:12:14.073Z,101498.07
2019-05-25T11:15:37.637Z,101490.91
2019-05-25T11:19:00.916Z,101482.20
2019-05-25T11:22:24.043Z,101482.30
2019-05-25T11:25:47.134Z,101484.20
2019-05-25T11:29:10.216Z,101489.36
2019-05-25T11:32:33.495Z,101475.41
2019-05-25T11:35:56.972Z,101483.67
2019-05-25T11:39:20.174Z,101483.56
2019-05-25T11:42:43.422Z,101488.14
2019-05-25T11:46:06.569Z,101480.25
2019-05-25T11:49:29.656Z,101477.05
2019-05-25T11:52:52.973Z,101477.31
2019-05-25T11:56:16.362Z,101478.31
2019-05-25T11:59:39.452Z,101470.73
2019-05-25T12:03:02.556Z,101474.36
2019-05-25T12:06:26.025Z,101472.42
2019-05-25T12:09:49.256Z,101471.25
2019-05-25T12:13:12.586Z,101460.08
2019-05-25T12:16:35.747Z,101460.45
2019-05-25T12:19:59.224Z,101456.42
2019-05-25T12:23:22.304Z,101458.50
2019-05-25T12:26:45.393Z,101453.08
2019-05-25T12:30:09.075Z,101455.81
2019-05-25T12:33:32.315Z,101456.08
2019-05-25T12:36:55.400Z,101455.27
2019-05-25T12:40:19.073Z,101448.73
2019-05-25T12:43:43.320Z,101445.48
2019-05-25T12:47:06.486Z,101445.04
2019-05-25T12:50:29.676Z,101444.12
2019-05-25T12:53:53.039Z,101450.91
2019-05-25T12:57:16.231Z,101446.86
2019-05-25T13:00:39.322Z,101437.91
2019-05-25T13:04:02.441Z,101441.01
2019-05-25T13:07:25.625Z,101434.20
2019-05-25T13:10:48.760Z,101427.52
2019-05-25T13:14:14.869Z,101422.09
2019-05-25T13:17:37.142Z,101425.04
2019-05-25T13:21:00.452Z,101429.25
2019-05-25T13:24:23.851Z,101428.73
2019-05-25T13:27:46.956Z,101425.02
2019-05-25T13:31:12.046Z,101426.47
2019-05-25T13:34:35.399Z,101422.16
2019-05-25T13:38:01.259Z,101412.45
2019-05-25T13:41:24.459Z,101412.04
2019-05-25T13:44:47.674Z,101403.31
2019-05-25T13:48:11.289Z,101410.13
2019-05-25T13:51:34.556Z,101405.88
2019-05-25T13:54:57.995Z,101405.45
2019-05-25T13:58:21.225Z,101399.97
2019-05-25T14:01:44.388Z,101400.61
2019-05-25T14:05:07.905Z,101397.66
2019-05-25T14:08:31.171Z,101399.65
2019-05-25T14:11:54.318Z,101391.11
2019-05-25T14:15:17.559Z,101394.41
2019-05-25T14:18:40.657Z,101390.25
2019-05-25T14:22:03.778Z,101389.10
2019-05-25T14:25:26.924Z,101391.03
2019-05-25T14:28:50.217Z,101385.38
2019-05-25T14:32:13.311Z,101385.17
2019-05-25T14:35:36.550Z,101378.75
2019-05-25T14:38:59.666Z,101385.36
2019-05-25T14:42:22.950Z,101378.03
2019-05-25T14:45:46.233Z,101382.58
2019-05-25T14:49:09.473Z,101372.27
2019-05-25T14:52:34.625Z,101375.09
2019-05-25T14:55:58.123Z,101367.70
2019-05-25T14:59:21.309Z,101369.48
2019-05-25T15:02:44.949Z,101373.09
2019-05-25T15:06:08.052Z,101366.84
2019-05-25T15:09:31.214Z,101361.38
2019-05-25T15:12:54.438Z,101367.58
2019-05-25T15:16:17.884Z,101364.77
2019-05-25T15:19:41.012Z,101373.89
2019-05-25T15:23:04.141Z,101369.25
2019-05-25T15:26:27.288Z,101361.33
2019-05-25T15:29:50.710Z,101367.09
2019-05-25T15:33:14.245Z,101360.49
2019-05-25T15:36:37.522Z,101360.61
2019-05-25T15:40:00.944Z,101369.42
2019-05-25T15:43:24.018Z,101364.92
2019-05-25T15:46:47.236Z,101369.12
2019-05-25T15:50:12.319Z,101370.27
2019-05-25T15:53:35.618Z,101363.16
2019-05-25T15:56:58.980Z,101358.57
2019-05-25T16:00:44.651Z,101348.27
2019-05-25T16:04:07.917Z,101356.32
2019-05-25T16:07:31.733Z,101354.83
2019-05-25T16:10:54.988Z,101356.45
2019-05-25T16:14:18.304Z,101340.49
2019-05-25T16:17:41.622Z,101339.86
2019-05-25T16:21:04.800Z,101346.82
2019-05-25T16:24:27.902Z,101342.89
2019-05-25T16:27:51.029Z,101338.90
2019-05-25T16:31:14.179Z,101340.14
2019-05-25T16:34:37.480Z,101330.12
2019-05-25T16:38:00.826Z,101341.59
2019-05-25T16:41:24.238Z,101338.50
2019-05-25T16:44:47.399Z,101330.55
2019-05-25T16:48:10.465Z,101334.94
2019-05-25T16:51:34.665Z,101333.05
2019-05-25T16:54:57.894Z,101338.30
2019-05-25T16:58:22.172Z,101335.28
2019-05-25T17:01:48.583Z,101333.84
2019-05-25T17:05:10.708Z,101328.55
2019-05-25T17:08:34.040Z,101325.66
2019-05-25T17:11:57.152Z,101323.73
2019-05-25T17:15:20.223Z,101321.43
2019-05-25T17:18:43.415Z,101317.52
2019-05-25T17:22:06.683Z,101312.80
2019-05-25T17:25:31.178Z,101315.17
2019-05-25T17:28:54.367Z,101324.55
2019-05-25T17:32:17.742Z,101319.85
2019-05-25T17:35:40.955Z,101321.41
2019-05-25T17:39:06.110Z,101327.36
2019-05-25T17:42:29.337Z,101330.86
2019-05-25T17:45:53.437Z,101339.92
2019-05-25T17:49:16.641Z,101336.47
2019-05-25T17:52:39.817Z,101330.03
2019-05-25T17:56:03.311Z,101339.64
2019-05-25T17:59:26.374Z,101337.80
2019-05-25T18:02:49.737Z,101343.56
2019-05-25T18:06:13.994Z,101340.53
2019-05-25T18:09:37.309Z,101344.26
2019-05-25T18:13:00.510Z,101336.80
2019-05-25T18:16:24.173Z,101337.02
2019-05-25T18:19:47.395Z,101343.89
2019-05-25T18:23:11.250Z,101339.55
2019-05-25T18:26:34.523Z,101349.05
2019-05-25T18:30:06.341Z,101338.40
2019-05-25T18:33:29.581Z,101338.74
2019-05-25T18:36:52.823Z,101342.35
2019-05-25T18:40:16.924Z,101344.27
2019-05-25T18:43:40.057Z,101338.45
2019-05-25T18:47:03.269Z,101338.50
2019-05-25T18:50:26.478Z,101342.83
2019-05-25T18:53:49.729Z,101341.38
2019-05-25T18:57:12.943Z,101342.20
2019-05-25T19:00:36.066Z,101346.19
2019-05-25T19:03:59.260Z,101349.17
2019-05-25T19:07:22.392Z,101345.66
2019-05-25T19:10:45.595Z,101354.81
2019-05-25T19:14:08.749Z,101346.16
2019-05-25T19:17:32.479Z,101347.06
2019-05-25T19:20:55.615Z,101354.93
2019-05-25T19:24:18.736Z,101362.63
2019-05-25T19:27:41.856Z,101357.90
2019-05-25T19:31:05.206Z,101353.63
2019-05-25T19:34:28.354Z,101354.61
2019-05-25T19:37:51.473Z,101365.86
2019-05-25T19:41:14.978Z,101361.27
2019-05-25T19:44:38.316Z,101371.36
2019-05-25T19:48:01.547Z,101379.06
2019-05-25T19:51:24.913Z,101385.03
2019-05-25T19:54:48.202Z,101382.66
2019-05-25T19:58:11.970Z,101385.96
2019-05-25T20:01:36.189Z,101385.25
2019-05-25T20:05:15.187Z,101396.77
2019-05-25T20:08:25.727Z,101405.47
2019-05-25T20:11:49.687Z,101409.59
2019-05-25T20:15:14.178Z,101403.61
2019-05-25T20:18:38.195Z,101405.28
2019-05-25T20:22:01.411Z,101404.40
2019-05-25T20:25:25.802Z,101404.64
2019-05-25T20:28:51.585Z,101404.09
2019-05-25T20:32:16.854Z,101408.56
2019-05-25T20:35:41.505Z,101410.27
2019-05-25T20:39:06.317Z,101413.98
2019-05-25T20:42:30.337Z,101414.34
2019-05-25T20:45:53.703Z,101414.28
2019-05-25T20:49:16.954Z,101411.27
2019-05-25T20:52:40.491Z,101409.63
2019-05-25T20:56:04.453Z,101407.17
2019-05-25T20:59:28.209Z,101413.03
2019-05-25T21:03:05.361Z,101407.95
2019-05-25T21:06:17.753Z,101409.53
2019-05-25T21:09:41.366Z,101408.12
2019-05-25T21:13:05.010Z,101400.59
2019-05-25T21:16:28.700Z,101400.45
2019-05-25T21:19:52.305Z,101403.94
2019-05-25T21:23:15.879Z,101411.88
2019-05-25T21:26:39.049Z,101411.62
2019-05-25T21:30:02.835Z,101416.70
2019-05-25T21:33:26.244Z,101417.95
2019-05-25T21:36:49.577Z,101414.38
2019-05-25T21:40:13.089Z,101414.36
2019-05-25T21:43:36.603Z,101407.92
2019-05-25T21:46:59.698Z,101407.44
2019-05-25T21:50:23.005Z,101407.92
2019-05-25T21:53:46.082Z,101406.86
2019-05-25T21:57:09.211Z,101404.23
2019-05-25T22:00:34.365Z,101403.22
2019-05-25T22:03:59.430Z,101397.31
2019-05-25T22:07:22.818Z,101397.76
2019-05-25T22:10:46.905Z,101389.61
2019-05-25T22:14:10.278Z,101386.61
2019-05-25T22:17:33.400Z,101389.17
2019-05-25T22:20:56.842Z,101386.83
2019-05-25T22:24:20.172Z,101380.90
2019-05-25T22:27:43.318Z,101373.09
2019-05-25T22:31:06.709Z,101366.91
2019-05-25T22:34:29.939Z,101364.41
2019-05-25T22:37:53.041Z,101370.13
2019-05-25T22:41:19.830Z,101369.37
2019-05-25T22:44:42.546Z,101363.45
2019-05-25T22:48:06.245Z,101364.69
2019-05-25T22:51:30.000Z,101370.73
2019-05-25T22:54:53.284Z,101361.72
2019-05-25T22:58:16.473Z,101364.56
2019-05-25T23:01:39.651Z,101359.37
2019-05-25T23:05:06.853Z,101354.83
2019-05-25T23:08:28.057Z,101353.20
2019-05-25T23:11:51.188Z,101347.56
2019-05-25T23:15:14.855Z,101342.25
2019-05-25T23:18:38.078Z,101345.93
2019-05-25T23:22:01.191Z,101341.27
2019-05-25T23:25:24.665Z,101344.96
2019-05-25T23:28:47.765Z,101349.41
2019-05-25T23:32:10.957Z,101345.14
2019-05-25T23:35:37.163Z,101343.61
2019-05-25T23:39:00.363Z,101347.23
2019-05-25T23:42:23.496Z,101343.80
2019-05-25T23:45:46.715Z,101344.47
2019-05-25T23:49:10.015Z,101337.48
2019-05-25T23:52:33.132Z,101338.84
2019-05-25T23:55:56.258Z,101334.59
2019-05-25T23:59:19.487Z,101333.67
